GWILD EGBO-EGBO
Flight info
| Callsign | GWILD |
|---|---|
| Flight time | 0h 27m |
| Altitude | 1000 |
| Route | CIRCUIT |
| Aircraft | BE36/L-VGD/A |
Departure
| Time | 2026-04-27 17:15 |
|---|---|
| Airport | Wolverhampton Halfpenny Green Airport (EGBO) |
Arrival
| Time | 2026-04-27 17:43 |
|---|---|
| Airport | Wolverhampton Halfpenny Green Airport (EGBO) |
| Time | Latitude | Longitude | Altitude | Speed | Heading |
|---|---|---|---|---|---|
| 2026-04-27 17:06 | 52.51490 | -2.26374 | 266 ft | 0 kts | 207° |
| 2026-04-27 17:07 | 52.51485 | -2.26374 | 269 ft | 4 kts | 149° |
| 2026-04-27 17:08 | 52.51496 | -2.26358 | 269 ft | 2 kts | 355° |
| 2026-04-27 17:08 | 52.51517 | -2.26362 | 270 ft | 5 kts | 337° |
| 2026-04-27 17:08 | 52.51527 | -2.26424 | 268 ft | 6 kts | 274° |
| 2026-04-27 17:08 | 52.51531 | -2.26497 | 267 ft | 6 kts | 275° |
| 2026-04-27 17:09 | 52.51537 | -2.26569 | 266 ft | 6 kts | 279° |
| 2026-04-27 17:09 | 52.51543 | -2.26657 | 264 ft | 10 kts | 274° |
| 2026-04-27 17:09 | 52.51593 | -2.26697 | 266 ft | 8 kts | 24° |
| 2026-04-27 17:09 | 52.51610 | -2.26683 | 269 ft | 0 kts | 31° |
| 2026-04-27 17:10 | 52.51614 | -2.26679 | 268 ft | 7 kts | 32° |
| 2026-04-27 17:10 | 52.51686 | -2.26595 | 276 ft | 11 kts | 46° |
| 2026-04-27 17:10 | 52.51703 | -2.26494 | 277 ft | 8 kts | 96° |
| 2026-04-27 17:10 | 52.51699 | -2.26405 | 276 ft | 8 kts | 95° |
| 2026-04-27 17:11 | 52.51693 | -2.26316 | 275 ft | 8 kts | 101° |
| 2026-04-27 17:11 | 52.51681 | -2.26194 | 276 ft | 4 kts | 81° |
| 2026-04-27 17:11 | 52.51680 | -2.26170 | 276 ft | 0 kts | 129° |
| 2026-04-27 17:12 | 52.51677 | -2.26161 | 276 ft | 5 kts | 109° |
| 2026-04-27 17:13 | 52.51667 | -2.26036 | 276 ft | 15 kts | 94° |
| 2026-04-27 17:13 | 52.51614 | -2.25874 | 275 ft | 18 kts | 156° |
| 2026-04-27 17:13 | 52.51512 | -2.25805 | 279 ft | 14 kts | 158° |
| 2026-04-27 17:13 | 52.51450 | -2.25752 | 278 ft | 5 kts | 101° |
| 2026-04-27 17:14 | 52.51454 | -2.25744 | 278 ft | 0 kts | 340° |
| 2026-04-27 17:14 | 52.51635 | -2.25874 | 274 ft | 66 kts | 336° |
| 2026-04-27 17:14 | 52.52186 | -2.26277 | 416 ft | 98 kts | 337° |
| 2026-04-27 17:15 | 52.52892 | -2.26690 | 607 ft | 117 kts | 341° |
| 2026-04-27 17:15 | 52.53411 | -2.27024 | 769 ft | 119 kts | 329° |
| 2026-04-27 17:15 | 52.53770 | -2.28095 | 1016 ft | 126 kts | 271° |
| 2026-04-27 17:16 | 52.53466 | -2.29483 | 1026 ft | 131 kts | 248° |
| 2026-04-27 17:16 | 52.53097 | -2.30860 | 1032 ft | 132 kts | 250° |
| 2026-04-27 17:16 | 52.52712 | -2.32154 | 1034 ft | 133 kts | 236° |
| 2026-04-27 17:16 | 52.51932 | -2.32771 | 1018 ft | 137 kts | 178° |
| 2026-04-27 17:17 | 52.51029 | -2.32317 | 1031 ft | 137 kts | 160° |
| 2026-04-27 17:17 | 52.50095 | -2.31837 | 1184 ft | 143 kts | 172° |
| 2026-04-27 17:17 | 52.49210 | -2.32342 | 1443 ft | 138 kts | 228° |
| 2026-04-27 17:18 | 52.49565 | -2.35025 | 1955 ft | 136 kts | 317° |
| 2026-04-27 17:18 | 52.50266 | -2.36121 | 2015 ft | 157 kts | 315° |
| 2026-04-27 17:18 | 52.51116 | -2.37455 | 2033 ft | 172 kts | 316° |
| 2026-04-27 17:18 | 52.51963 | -2.38901 | 2032 ft | 178 kts | 303° |
| 2026-04-27 17:19 | 52.52357 | -2.40831 | 2030 ft | 181 kts | 280° |
| 2026-04-27 17:19 | 52.52466 | -2.42884 | 2030 ft | 182 kts | 267° |
| 2026-04-27 17:19 | 52.52369 | -2.44961 | 2027 ft | 183 kts | 265° |
| 2026-04-27 17:19 | 52.52271 | -2.47048 | 2027 ft | 183 kts | 266° |
| 2026-04-27 17:20 | 52.52253 | -2.49140 | 2031 ft | 183 kts | 270° |
| 2026-04-27 17:20 | 52.52254 | -2.51231 | 2028 ft | 183 kts | 270° |
| 2026-04-27 17:20 | 52.52255 | -2.53327 | 2033 ft | 183 kts | 270° |
| 2026-04-27 17:20 | 52.52258 | -2.55422 | 2033 ft | 183 kts | 270° |
| 2026-04-27 17:21 | 52.52258 | -2.57512 | 2030 ft | 183 kts | 270° |
| 2026-04-27 17:21 | 52.52257 | -2.59607 | 2031 ft | 184 kts | 270° |
| 2026-04-27 17:21 | 52.52255 | -2.61681 | 2030 ft | 184 kts | 270° |
| 2026-04-27 17:21 | 52.52252 | -2.63803 | 2030 ft | 183 kts | 270° |
| 2026-04-27 17:22 | 52.52253 | -2.65868 | 2032 ft | 183 kts | 270° |
| 2026-04-27 17:22 | 52.52247 | -2.67958 | 2028 ft | 183 kts | 270° |
| 2026-04-27 17:22 | 52.52244 | -2.70058 | 2026 ft | 183 kts | 270° |
| 2026-04-27 17:22 | 52.52239 | -2.72151 | 2028 ft | 183 kts | 270° |
| 2026-04-27 17:23 | 52.52233 | -2.74241 | 2027 ft | 183 kts | 270° |
| 2026-04-27 17:23 | 52.52226 | -2.76336 | 2028 ft | 183 kts | 270° |
| 2026-04-27 17:23 | 52.52218 | -2.78422 | 2029 ft | 183 kts | 270° |
| 2026-04-27 17:23 | 52.52211 | -2.80517 | 2030 ft | 183 kts | 270° |
| 2026-04-27 17:24 | 52.52485 | -2.82499 | 2113 ft | 172 kts | 306° |
| 2026-04-27 17:24 | 52.53494 | -2.83171 | 2016 ft | 169 kts | 13° |
| 2026-04-27 17:24 | 52.54093 | -2.81756 | 1965 ft | 165 kts | 93° |
| 2026-04-27 17:24 | 52.53935 | -2.79731 | 1390 ft | 183 kts | 78° |
| 2026-04-27 17:25 | 52.54621 | -2.78275 | 1805 ft | 163 kts | 40° |
| 2026-04-27 17:25 | 52.55411 | -2.77204 | 1824 ft | 144 kts | 36° |
| 2026-04-27 17:25 | 52.55943 | -2.75838 | 1657 ft | 158 kts | 156° |
| 2026-04-27 17:25 | 52.54982 | -2.76631 | 1477 ft | 170 kts | 225° |
| 2026-04-27 17:26 | 52.54128 | -2.77432 | 1668 ft | 154 kts | 141° |
| 2026-04-27 17:26 | 52.53616 | -2.75846 | 1517 ft | 164 kts | 101° |
| 2026-04-27 17:26 | 52.53474 | -2.73939 | 1424 ft | 166 kts | 94° |
| 2026-04-27 17:26 | 52.53270 | -2.72040 | 1356 ft | 164 kts | 103° |
| 2026-04-27 17:27 | 52.52913 | -2.70293 | 1239 ft | 170 kts | 109° |
| 2026-04-27 17:27 | 52.52826 | -2.68405 | 1132 ft | 169 kts | 56° |
| 2026-04-27 17:27 | 52.53690 | -2.67127 | 1199 ft | 169 kts | 33° |
| 2026-04-27 17:27 | 52.54654 | -2.65957 | 1169 ft | 167 kts | 37° |
| 2026-04-27 17:28 | 52.55577 | -2.64818 | 1100 ft | 164 kts | 36° |
| 2026-04-27 17:28 | 52.56428 | -2.63597 | 1037 ft | 164 kts | 42° |
| 2026-04-27 17:28 | 52.57744 | -2.60755 | 1182 ft | 154 kts | 43° |
| 2026-04-27 17:29 | 52.58513 | -2.59610 | 1362 ft | 149 kts | 40° |
| 2026-04-27 17:29 | 52.59179 | -2.58389 | 1435 ft | 153 kts | 59° |
| 2026-04-27 17:29 | 52.59434 | -2.56564 | 1247 ft | 166 kts | 80° |
| 2026-04-27 17:29 | 52.59742 | -2.54814 | 1556 ft | 158 kts | 60° |
| 2026-04-27 17:30 | 52.60349 | -2.53300 | 1803 ft | 159 kts | 53° |
| 2026-04-27 17:30 | 52.61660 | -2.50175 | 2024 ft | 174 kts | 53° |
| 2026-04-27 17:30 | 52.62368 | -2.48521 | 2031 ft | 179 kts | 53° |
| 2026-04-27 17:31 | 52.62858 | -2.47389 | 2034 ft | 181 kts | 53° |
| 2026-04-27 17:31 | 52.63584 | -2.45679 | 2040 ft | 183 kts | 52° |
| 2026-04-27 17:31 | 52.64376 | -2.44064 | 2026 ft | 184 kts | 43° |
| 2026-04-27 17:31 | 52.65366 | -2.42804 | 1858 ft | 178 kts | 28° |
| 2026-04-27 17:32 | 52.66497 | -2.41956 | 1536 ft | 178 kts | 19° |
| 2026-04-27 17:32 | 52.68799 | -2.41667 | 1235 ft | 170 kts | 334° |
| 2026-04-27 17:32 | 52.69026 | -2.42981 | 1414 ft | 153 kts | 217° |
| 2026-04-27 17:33 | 52.68118 | -2.44027 | 1638 ft | 161 kts | 217° |
| 2026-04-27 17:33 | 52.67083 | -2.44763 | 1886 ft | 169 kts | 183° |
| 2026-04-27 17:33 | 52.65986 | -2.44113 | 2023 ft | 176 kts | 141° |
| 2026-04-27 17:33 | 52.65033 | -2.42751 | 2032 ft | 185 kts | 137° |
| 2026-04-27 17:34 | 52.64065 | -2.41327 | 2031 ft | 188 kts | 137° |
| 2026-04-27 17:34 | 52.63070 | -2.40002 | 2031 ft | 181 kts | 142° |
| 2026-04-27 17:34 | 52.62074 | -2.38773 | 2024 ft | 177 kts | 142° |
| 2026-04-27 17:34 | 52.61115 | -2.37576 | 2025 ft | 174 kts | 141° |
| 2026-04-27 17:35 | 52.60150 | -2.36371 | 2027 ft | 174 kts | 141° |
| 2026-04-27 17:35 | 52.59184 | -2.35172 | 2028 ft | 174 kts | 142° |
| 2026-04-27 17:35 | 52.58212 | -2.33966 | 2028 ft | 175 kts | 142° |
| 2026-04-27 17:35 | 52.57247 | -2.32758 | 2017 ft | 175 kts | 142° |
| 2026-04-27 17:36 | 52.56279 | -2.31561 | 2015 ft | 174 kts | 141° |
| 2026-04-27 17:36 | 52.55314 | -2.30358 | 2018 ft | 175 kts | 141° |
| 2026-04-27 17:36 | 52.54434 | -2.29269 | 2016 ft | 175 kts | 141° |
| 2026-04-27 17:36 | 52.53396 | -2.28266 | 2009 ft | 175 kts | 161° |
| 2026-04-27 17:37 | 52.52225 | -2.27701 | 2017 ft | 175 kts | 163° |
| 2026-04-27 17:37 | 52.51054 | -2.27132 | 2010 ft | 175 kts | 161° |
| 2026-04-27 17:37 | 52.49890 | -2.26532 | 2015 ft | 175 kts | 159° |
| 2026-04-27 17:37 | 52.48987 | -2.25296 | 2003 ft | 169 kts | 114° |
| 2026-04-27 17:38 | 52.48871 | -2.23601 | 2006 ft | 153 kts | 72° |
| 2026-04-27 17:38 | 52.49214 | -2.21961 | 2003 ft | 149 kts | 52° |
| 2026-04-27 17:38 | 52.50041 | -2.21175 | 2007 ft | 138 kts | 0° |
| 2026-04-27 17:38 | 52.50995 | -2.21586 | 1851 ft | 151 kts | 340° |
| 2026-04-27 17:39 | 52.51961 | -2.22198 | 1604 ft | 138 kts | 339° |
| 2026-04-27 17:39 | 52.52794 | -2.22784 | 1336 ft | 124 kts | 336° |
| 2026-04-27 17:39 | 52.53521 | -2.23379 | 1032 ft | 115 kts | 335° |
| 2026-04-27 17:39 | 52.54035 | -2.24100 | 980 ft | 91 kts | 287° |
| 2026-04-27 17:40 | 52.53799 | -2.25111 | 1012 ft | 110 kts | 248° |
| 2026-04-27 17:40 | 52.53435 | -2.26396 | 1031 ft | 136 kts | 252° |
| 2026-04-27 17:40 | 52.52988 | -2.27857 | 1032 ft | 147 kts | 244° |
| 2026-04-27 17:40 | 52.52410 | -2.29298 | 1026 ft | 158 kts | 225° |
| 2026-04-27 17:41 | 52.51346 | -2.29848 | 1023 ft | 170 kts | 175° |
| 2026-04-27 17:41 | 52.50229 | -2.29240 | 1014 ft | 162 kts | 157° |
| 2026-04-27 17:41 | 52.49482 | -2.28318 | 1046 ft | 114 kts | 106° |
| 2026-04-27 17:41 | 52.49610 | -2.27270 | 941 ft | 93 kts | 59° |
| 2026-04-27 17:42 | 52.49854 | -2.26308 | 893 ft | 99 kts | 58° |
| 2026-04-27 17:42 | 52.50100 | -2.25372 | 709 ft | 80 kts | 56° |
| 2026-04-27 17:42 | 52.50483 | -2.25080 | 505 ft | 71 kts | 352° |
| 2026-04-27 17:42 | 52.50980 | -2.25396 | 378 ft | 76 kts | 336° |
| 2026-04-27 17:43 | 52.51443 | -2.25738 | 278 ft | 66 kts | 336° |
| 2026-04-27 17:43 | 52.51757 | -2.25965 | 274 ft | 35 kts | 334° |
| 2026-04-27 17:43 | 52.51928 | -2.26093 | 275 ft | 20 kts | 335° |
| 2026-04-27 17:43 | 52.52000 | -2.26169 | 275 ft | 9 kts | 293° |
| 2026-04-27 17:44 | 52.51974 | -2.26240 | 276 ft | 8 kts | 225° |
| 2026-04-27 17:44 | 52.51926 | -2.26299 | 276 ft | 9 kts | 214° |
| 2026-04-27 17:44 | 52.51879 | -2.26359 | 277 ft | 7 kts | 218° |
| 2026-04-27 17:44 | 52.51847 | -2.26400 | 278 ft | 6 kts | 217° |
| 2026-04-27 17:45 | 52.51805 | -2.26455 | 279 ft | 10 kts | 219° |
| 2026-04-27 17:45 | 52.51735 | -2.26543 | 277 ft | 15 kts | 213° |
| 2026-04-27 17:45 | 52.51659 | -2.26632 | 274 ft | 11 kts | 217° |
| 2026-04-27 17:45 | 52.51585 | -2.26717 | 263 ft | 14 kts | 207° |
| 2026-04-27 17:46 | 52.51548 | -2.26692 | 263 ft | 4 kts | 108° |
| 2026-04-27 17:46 | 52.51545 | -2.26677 | 264 ft | 0 kts | 103° |
| 2026-04-27 17:46 | 52.51544 | -2.26665 | 264 ft | 5 kts | 97° |
| 2026-04-27 17:46 | 52.51538 | -2.26578 | 266 ft | 9 kts | 109° |
| 2026-04-27 17:47 | 52.51531 | -2.26487 | 268 ft | 7 kts | 94° |
| 2026-04-27 17:47 | 52.51529 | -2.26424 | 268 ft | 10 kts | 91° |
| 2026-04-27 17:47 | 52.51498 | -2.26371 | 269 ft | 5 kts | 217° |
| 2026-04-27 17:47 | 52.51489 | -2.26377 | 269 ft | 0 kts | 186° |
| 2026-04-27 19:02 | 52.51488 | -2.26377 | 261 ft | 3 kts | 171° |
| 2026-04-27 19:02 | 52.51483 | -2.26358 | 269 ft | 2 kts | 47° |
| 2026-04-27 19:03 | 52.51511 | -2.26358 | 271 ft | 4 kts | 11° |
| 2026-04-27 19:03 | 52.51521 | -2.26333 | 271 ft | 7 kts | 95° |
| 2026-04-27 19:03 | 52.51504 | -2.26217 | 272 ft | 5 kts | 172° |
| 2026-04-27 19:03 | 52.51478 | -2.26218 | 271 ft | 6 kts | 186° |
| 2026-04-27 19:04 | 52.51457 | -2.26211 | 271 ft | 0 kts | 130° |
| 2026-04-27 19:04 | 52.51457 | -2.26210 | 271 ft | 1 kts | 127° |
| 2026-04-27 19:04 | 52.51449 | -2.26192 | 272 ft | 7 kts | 128° |
| 2026-04-27 19:04 | 52.51435 | -2.26166 | 272 ft | 0 kts | 122° |